M. Luther — WDC7372 — position and weather

sailwx.info

Track history (hours):
 
Tides and Currents Weather Stations Pressure Air Temp Water Temp Dewpoint Dewpoint Depression Visibility Wind Speed Wind Dir Waves Ship Positions

M. Luther

Owner: Salmon Bay Barge Line, Inc., Seattle, WA. More information available from US FCC via Universal Licensing System and Coast Guard Vessel Documentation Center.

Last reported at 2015-May-25 08:33 UTC. Time now 2015-May-25 09:31 UTC.
Position N 49°09' W 123°00'.

Length 28 m; draft 4.1 m.

Type: Tug. MMSI: 367070410.

Date/timePositionNaut miles runAvg speedWind from/ knotsBaromVisibWave heightAir tempDewpointWater temp
2015-May-25 08:33N 49°09' W 123°00'0 0.0
2015-May-25 07:33N 49°09' W 123°00'0 0.0
2015-May-25 06:33N 49°09' W 123°00'0 0.0
2015-May-25 05:33N 49°09' W 123°00'0 0.0
2015-May-25 04:33N 49°09' W 123°00'0 0.0
2015-May-25 03:33N 49°09' W 123°00'0 0.0
2015-May-25 02:33N 49°09' W 123°00'0 0.0
2015-May-25 01:09N 49°09' W 123°00'0 0.0
2015-May-24 23:18N 49°09' W 123°00'0 0.0
2015-May-24 22:33N 49°09' W 123°00'0 0.0
2015-May-24 21:33N 49°09' W 123°00'0 0.0
2015-May-24 20:30N 49°09' W 123°00'0 0.0
2015-May-24 19:33N 49°09' W 123°00'0 0.0
2015-May-24 18:33N 49°09' W 123°00'0 0.0
2015-May-24 17:33N 49°09' W 123°00'0 0.0
2015-May-24 16:33N 49°09' W 123°00'0 0.0
2015-May-24 15:33N 49°09' W 123°00'0 0.0
2015-May-24 14:33N 49°09' W 123°00'0 0.0
2015-May-24 13:33N 49°09' W 123°00'2 2.0
2015-May-24 12:33N 49°08' W 123°03'5 4.4
2015-May-24 11:31N 49°07' W 123°10'7 3.0
2015-May-24 09:16N 49°03' W 123°19'11 5.0
2015-May-24 07:08N 48°56' W 123°06'5 5.3
2015-May-24 06:11N 48°53' W 123°01'4 6.3
2015-May-24 05:33N 48°50' W 122°56'6 6.2
2015-May-24 04:31N 48°46' W 122°48'7 7.0
2015-May-24 03:33N 48°41' W 122°42'9 9.1
2015-May-24 02:33N 48°32' W 122°45'9 9.0
2015-May-24 01:32N 48°23' W 122°44'9 7.0
2015-May-24 00:13N 48°14' W 122°47'3 6.4
2015-May-23 23:46N 48°11' W 122°45'10 7.5
2015-May-23 22:26N 48°03' W 122°38'5 8.6
2015-May-23 21:50N 47°58' W 122°34'2 8.9
2015-May-23 21:34N 47°57' W 122°31'3 8.2
2015-May-23 21:08N 47°54' W 122°28'5 8.7
2015-May-23 20:34N 47°49' W 122°26'1 8.1
2015-May-23 20:29N 47°49' W 122°26'8 8.6
2015-May-23 19:33N 47°41' W 122°27'1 8.4
2015-May-23 19:24N 47°39' W 122°27'6 7.0
2015-May-23 18:34N 47°34' W 122°21'010.8
2015-May-23 18:33N 47°34' W 122°21'1 1.2
2015-May-23 17:33N 47°33' W 122°21'0 0.0
2015-May-23 17:32N 47°33' W 122°21'0 0.0
2015-May-23 16:27N 47°33' W 122°21'0 0.0
2015-May-23 16:26N 47°33' W 122°21'0 0.0
2015-May-23 15:27N 47°33' W 122°21'0 0.0
2015-May-23 15:26N 47°33' W 122°21'0 0.0
2015-May-23 14:32N 47°33' W 122°21'0 0.0
2015-May-23 14:26N 47°33' W 122°21'0 0.0
2015-May-23 13:29N 47°33' W 122°21'0 0.0
2015-May-23 12:50N 47°33' W 122°21'0 0.0
2015-May-23 12:32N 47°33' W 122°21'0 0.0
2015-May-23 12:20N 47°33' W 122°21'0 0.0
2015-May-23 11:32N 47°33' W 122°21'0 0.0
2015-May-23 11:14N 47°33' W 122°21'0 0.0
2015-May-23 10:32N 47°33' W 122°21'0 0.0
2015-May-23 10:29N 47°33' W 122°21'0 0.0
2015-May-23 09:32N 47°33' W 122°21'0 0.0
2015-May-23 09:29N 47°33' W 122°21'0 0.0
2015-May-23 08:32N 47°33' W 122°21'0 0.0
2015-May-23 08:29N 47°33' W 122°21'0 0.0
2015-May-23 06:47N 47°33' W 122°21'0 0.0
2015-May-23 06:29N 47°33' W 122°21'0 0.0
2015-May-23 05:47N 47°33' W 122°21'0 0.0
2015-May-23 05:26N 47°33' W 122°21'0 0.0
2015-May-23 04:05N 47°33' W 122°21'0 0.0
2015-May-23 03:32N 47°33' W 122°21'0 0.0
2015-May-23 03:05N 47°33' W 122°21'0 0.0
2015-May-23 02:32N 47°33' W 122°21'0 0.0
2015-May-23 01:44N 47°33' W 122°21'0 0.0
2015-May-23 01:14N 47°33' W 122°21'0 0.0
2015-May-23 01:14N 47°33' W 122°21'0 0.0
2015-May-23 00:32N 47°33' W 122°21'0 0.0
2015-May-23 00:29N 47°33' W 122°21'0 0.0
2015-May-22 23:26N 47°33' W 122°21'0 0.0
2015-May-22 22:31N 47°33' W 122°21'0 0.0
2015-May-22 22:29N 47°33' W 122°21'0 0.0
2015-May-22 21:33N 47°33' W 122°21'0 0.1
2015-May-22 21:28N 47°33' W 122°21'0 0.0
2015-May-22 20:34N 47°33' W 122°21'0 0.0
2015-May-22 20:34N 47°33' W 122°21'2 1.9
2015-May-22 19:33N 47°35' W 122°21'0 0.0
2015-May-22 19:33N 47°35' W 122°21'0 0.0
2015-May-22 18:33N 47°35' W 122°21'0 0.0
2015-May-22 18:33N 47°35' W 122°21'2 1.8
2015-May-22 17:28N 47°33' W 122°21'0 0.0
2015-May-22 17:27N 47°33' W 122°21'0 0.0
2015-May-22 14:44N 47°33' W 122°21'0 0.0
2015-May-22 14:32N 47°33' W 122°21'0 0.0
2015-May-22 13:44N 47°33' W 122°21'0 0.0
2015-May-22 13:26N 47°33' W 122°21'0 0.0
2015-May-22 13:14N 47°33' W 122°21'0 0.0
2015-May-22 12:14N 47°33' W 122°21'0 0.0
2015-May-22 11:53N 47°33' W 122°21'0 0.0
2015-May-22 11:32N 47°33' W 122°21'0 0.0
2015-May-22 11:23N 47°33' W 122°21'0 0.0
2015-May-22 10:32N 47°33' W 122°21'0 0.0
2015-May-22 10:32N 47°33' W 122°21'0 0.0
2015-May-22 09:32N 47°33' W 122°21'0 0.0
2015-May-22 09:31N 47°33' W 122°21'0 0.0
2015-May-22 08:11N 47°33' W 122°21'0 0.0
2015-May-22 08:10N 47°33' W 122°21'0 0.0
2015-May-22 07:23N 47°33' W 122°21'0 0.0
2015-May-22 06:55N 47°33' W 122°21'0 0.0
2015-May-22 06:25N 47°33' W 122°21'0 0.0
2015-May-22 06:25N 47°33' W 122°21'0 0.0
2015-May-22 05:34N 47°33' W 122°21'0 0.1
2015-May-22 05:31N 47°33' W 122°21'0 0.0
2015-May-22 04:25N 47°33' W 122°21'0 0.0
2015-May-22 04:13N 47°33' W 122°21'0 0.0
2015-May-22 03:31N 47°33' W 122°21'0 0.0
2015-May-22 02:58N 47°33' W 122°21'0 0.0
2015-May-22 02:31N 47°33' W 122°21'0 0.0
2015-May-22 02:28N 47°33' W 122°21'1 1.6
2015-May-22 01:33N 47°35' W 122°22'0 4.6
2015-May-22 01:33N 47°35' W 122°22'4 4.0
2015-May-22 00:33N 47°37' W 122°26'0 6.6
2015-May-22 00:33N 47°37' W 122°26'7 6.8
2015-May-21 23:33N 47°44' W 122°28'0 7.0
2015-May-21 23:32N 47°44' W 122°28'7 7.4
2015-May-21 22:33N 47°51' W 122°29'0 7.6
2015-May-21 22:31N 47°52' W 122°29'7 7.0
2015-May-21 21:33N 47°57' W 122°35'6 6.1
2015-May-21 20:33N 48°03' W 122°39'5 4.6
2015-May-21 19:23N 48°08' W 122°42'4 3.7
2015-May-21 18:23N 48°10' W 122°46'2 2.8
2015-May-21 17:32N 48°12' W 122°48'6 6.0
2015-May-21 16:33N 48°18' W 122°47'8 7.8
2015-May-21 15:33N 48°26' W 122°45'8 8.1
2015-May-21 14:33N 48°34' W 122°45'7 6.9
2015-May-21 13:33N 48°41' W 122°44'7 6.8
2015-May-21 12:34N 48°46' W 122°50'8 7.7
2015-May-21 11:33N 48°50' W 123°00'7 7.0
2015-May-21 10:33N 48°54' W 123°08'7 7.2
2015-May-21 09:33N 48°59' W 123°16'6 6.1
2015-May-21 08:33N 49°05' W 123°20'4 6.8
2015-May-21 08:00N 49°07' W 123°16'3 6.0
2015-May-21 07:33N 49°07' W 123°12'7 6.6
2015-May-21 06:33N 49°09' W 123°02'0 0.1
2015-May-21 05:32N 49°09' W 123°02'0 0.0
2015-May-21 04:32N 49°09' W 123°02'0 0.0
2015-May-21 03:31N 49°09' W 123°02'0 0.0
2015-May-21 02:31N 49°09' W 123°02'0 0.0
2015-May-21 01:31N 49°09' W 123°02'0 0.0
2015-May-21 00:31N 49°09' W 123°02'0 0.0
2015-May-20 23:28N 49°09' W 123°02'0 0.0
2015-May-20 22:31N 49°09' W 123°02'0 0.0
2015-May-20 21:31N 49°09' W 123°02'0 0.0
2015-May-20 20:31N 49°09' W 123°02'0 0.0
2015-May-20 19:31N 49°09' W 123°02'0 0.0
2015-May-20 18:31N 49°09' W 123°02'0 0.0
2015-May-20 17:31N 49°09' W 123°02'0 0.0
2015-May-20 16:34N 49°09' W 123°02'0 0.0
2015-May-20 15:30N 49°09' W 123°02'0 0.0
2015-May-20 14:33N 49°09' W 123°02'0 0.0
2015-May-20 13:33N 49°09' W 123°02'0 0.0
2015-May-20 12:33N 49°09' W 123°02'0 0.0
2015-May-20 11:33N 49°09' W 123°02'0 0.0
2015-May-20 10:33N 49°09' W 123°02'0 0.0
2015-May-20 09:33N 49°09' W 123°02'0 0.0
2015-May-20 08:33N 49°09' W 123°02'0 0.0
2015-May-20 07:33N 49°09' W 123°02'0 0.0
2015-May-20 06:33N 49°09' W 123°02'0 0.0
2015-May-20 05:33N 49°09' W 123°02'0 0.0
2015-May-20 04:33N 49°09' W 123°02'0 0.0
2015-May-20 03:33N 49°09' W 123°02'0 0.0
2015-May-20 02:33N 49°09' W 123°02'0 0.0
2015-May-20 01:33N 49°09' W 123°02'0 0.0
2015-May-20 00:33N 49°09' W 123°02'0 0.0
2015-May-19 23:33N 49°09' W 123°02'0 0.0
2015-May-19 22:33N 49°09' W 123°02'0 0.0
2015-May-19 21:27N 49°09' W 123°02'0 0.0
2015-May-19 20:30N 49°09' W 123°02'0 0.0
2015-May-19 19:33N 49°09' W 123°02'0 0.0
2015-May-19 18:30N 49°09' W 123°02'0 0.0
2015-May-19 17:33N 49°09' W 123°02'0 0.0
2015-May-19 16:33N 49°09' W 123°02'0 0.0
2015-May-19 15:33N 49°09' W 123°02'0 0.0
2015-May-19 14:33N 49°09' W 123°02'0 0.0
2015-May-19 13:33N 49°09' W 123°02'0 0.0
2015-May-19 12:33N 49°09' W 123°02'0 0.0
2015-May-19 11:33N 49°09' W 123°02'0 0.0
2015-May-19 10:30N 49°09' W 123°02'0 0.0
2015-May-19 09:33N 49°09' W 123°02'0 0.0
2015-May-19 08:33N 49°09' W 123°02'0 0.0
2015-May-19 07:33N 49°09' W 123°02'0 0.0
2015-May-19 06:33N 49°09' W 123°02'0 0.0
2015-May-19 05:33N 49°09' W 123°02'0 0.0
2015-May-19 04:32N 49°09' W 123°02'0 0.0
2015-May-19 03:32N 49°09' W 123°02'0 0.1
2015-May-19 02:31N 49°09' W 123°02'1 1.1
2015-May-19 01:32N 49°09' W 123°00'0 0.0
2015-May-19 00:32N 49°09' W 123°00'0 0.0
2015-May-18 23:23N 49°09' W 123°00'0 0.0
2015-May-18 22:26N 49°09' W 123°00'0 0.0
2015-May-18 21:32N 49°09' W 123°00'0 0.0
2015-May-18 20:32N 49°09' W 123°00'0 0.0
2015-May-18 17:32N 49°09' W 123°00'0 0.0
2015-May-18 15:32N 49°09' W 123°00'0 0.0
2015-May-18 13:23N 49°09' W 123°00'0 0.0
2015-May-17 18:31N 49°09' W 123°00'0 0.0
2015-May-17 17:31N 49°09' W 123°00'0 0.0
2015-May-17 16:31N 49°09' W 123°00'0 0.0
2015-May-17 15:31N 49°09' W 123°00'0 0.0
2015-May-17 14:31N 49°09' W 123°00'0 0.1
2015-May-17 13:33N 49°09' W 123°00'1 0.6
2015-May-17 12:33N 49°09' W 123°01'6 6.0
2015-May-17 11:34N 49°07' W 123°10'6 5.5
2015-May-17 10:33N 49°06' W 123°18'4 4.0
2015-May-17 09:33N 49°02' W 123°17'6 6.0
2015-May-17 08:33N 48°58' W 123°10'6 6.4
2015-May-17 07:33N 48°54' W 123°02'8 8.4
2015-May-17 06:33N 48°49' W 122°52'8 8.3
2015-May-17 05:33N 48°42' W 122°44'7 6.6
2015-May-17 04:33N 48°36' W 122°45'7 6.4
2015-May-17 03:33N 48°29' W 122°44'8 7.6
2015-May-17 02:30N 48°21' W 122°45'22 7.2
2015-May-16 23:31N 48°01' W 122°36'3 6.7
2015-May-16 23:04N 47°58' W 122°34'4 8.0
2015-May-16 22:33N 47°56' W 122°29'1 7.4
2015-May-16 22:29N 47°55' W 122°29'7 7.8
2015-May-16 21:33N 47°48' W 122°26'1 8.3
2015-May-16 21:29N 47°48' W 122°26'7 7.9
2015-May-16 20:34N 47°40' W 122°27'0 8.5
2015-May-16 20:33N 47°40' W 122°27'6 6.3
2015-May-16 19:34N 47°35' W 122°22'0 0.0
2015-May-16 19:33N 47°35' W 122°22'2 1.5
2015-May-16 18:19N 47°33' W 122°21'0 0.0
2015-May-16 17:19N 47°33' W 122°21'0 0.1
2015-May-16 16:31N 47°33' W 122°21'0 0.0
2015-May-16 16:31N 47°33' W 122°21'0 0.0
2015-May-16 15:28N 47°33' W 122°21'0 0.0
2015-May-16 14:25N 47°33' W 122°21'0 0.0
2015-May-16 14:25N 47°33' W 122°21'0 0.0
2015-May-16 13:22N 47°33' W 122°21'0 0.1
2015-May-16 13:19N 47°33' W 122°21'0 0.0
2015-May-16 12:19N 47°33' W 122°21'0 0.0
2015-May-16 12:19N 47°33' W 122°21'0 0.0
2015-May-16 11:31N 47°33' W 122°21'0 0.0
2015-May-16 10:28N 47°33' W 122°21'0 0.0
2015-May-16 09:28N 47°33' W 122°21'0 0.0
2015-May-16 07:43N 47°33' W 122°21'0 0.0
2015-May-16 07:28N 47°33' W 122°21'0 0.0
2015-May-16 07:28N 47°33' W 122°21'0 0.0
2015-May-16 06:10N 47°33' W 122°21'0 0.0
2015-May-16 05:37N 47°33' W 122°21'0 0.0
2015-May-16 00:39N 47°33' W 122°21'0 0.1
2015-May-16 00:33N 47°33' W 122°21'  
Track history (hours):
 
Tides and Currents Weather Stations Pressure Air Temp Water Temp Dewpoint Dewpoint Depression Visibility Wind Speed Wind Dir Waves Ship Positions

M. Luther

Owner: Salmon Bay Barge Line, Inc., Seattle, WA. More information available from US FCC via Universal Licensing System and Coast Guard Vessel Documentation Center.

Last reported at 2015-May-25 08:33 UTC. Time now 2015-May-25 09:31 UTC.
Position N 49°09' W 123°00'.

Length 28 m; draft 4.1 m.

Type: Tug. MMSI: 367070410.

Date/timePositionNaut miles runAvg speedWind from/ knotsBaromVisibWave heightAir tempDewpointWater temp
2015-May-25 08:33N 49°09' W 123°00'0 0.0
2015-May-25 07:33N 49°09' W 123°00'0 0.0
2015-May-25 06:33N 49°09' W 123°00'0 0.0
2015-May-25 05:33N 49°09' W 123°00'0 0.0
2015-May-25 04:33N 49°09' W 123°00'0 0.0
2015-May-25 03:33N 49°09' W 123°00'0 0.0
2015-May-25 02:33N 49°09' W 123°00'0 0.0
2015-May-25 01:09N 49°09' W 123°00'0 0.0
2015-May-24 23:18N 49°09' W 123°00'0 0.0
2015-May-24 22:33N 49°09' W 123°00'0 0.0
2015-May-24 21:33N 49°09' W 123°00'0 0.0
2015-May-24 20:30N 49°09' W 123°00'0 0.0
2015-May-24 19:33N 49°09' W 123°00'0 0.0
2015-May-24 18:33N 49°09' W 123°00'0 0.0
2015-May-24 17:33N 49°09' W 123°00'0 0.0
2015-May-24 16:33N 49°09' W 123°00'0 0.0
2015-May-24 15:33N 49°09' W 123°00'0 0.0
2015-May-24 14:33N 49°09' W 123°00'0 0.0
2015-May-24 13:33N 49°09' W 123°00'2 2.0
2015-May-24 12:33N 49°08' W 123°03'5 4.4
2015-May-24 11:31N 49°07' W 123°10'7 3.0
2015-May-24 09:16N 49°03' W 123°19'11 5.0
2015-May-24 07:08N 48°56' W 123°06'5 5.3
2015-May-24 06:11N 48°53' W 123°01'4 6.3
2015-May-24 05:33N 48°50' W 122°56'6 6.2
2015-May-24 04:31N 48°46' W 122°48'7 7.0
2015-May-24 03:33N 48°41' W 122°42'9 9.1
2015-May-24 02:33N 48°32' W 122°45'9 9.0
2015-May-24 01:32N 48°23' W 122°44'9 7.0
2015-May-24 00:13N 48°14' W 122°47'3 6.4
2015-May-23 23:46N 48°11' W 122°45'10 7.5
2015-May-23 22:26N 48°03' W 122°38'5 8.6
2015-May-23 21:50N 47°58' W 122°34'2 8.9
2015-May-23 21:34N 47°57' W 122°31'3 8.2
2015-May-23 21:08N 47°54' W 122°28'5 8.7
2015-May-23 20:34N 47°49' W 122°26'1 8.1
2015-May-23 20:29N 47°49' W 122°26'8 8.6
2015-May-23 19:33N 47°41' W 122°27'1 8.4
2015-May-23 19:24N 47°39' W 122°27'6 7.0
2015-May-23 18:34N 47°34' W 122°21'010.8
2015-May-23 18:33N 47°34' W 122°21'1 1.2
2015-May-23 17:33N 47°33' W 122°21'0 0.0
2015-May-23 17:32N 47°33' W 122°21'0 0.0
2015-May-23 16:27N 47°33' W 122°21'0 0.0
2015-May-23 16:26N 47°33' W 122°21'0 0.0
2015-May-23 15:27N 47°33' W 122°21'0 0.0
2015-May-23 15:26N 47°33' W 122°21'0 0.0
2015-May-23 14:32N 47°33' W 122°21'0 0.0
2015-May-23 14:26N 47°33' W 122°21'0 0.0
2015-May-23 13:29N 47°33' W 122°21'0 0.0
2015-May-23 12:50N 47°33' W 122°21'0 0.0
2015-May-23 12:32N 47°33' W 122°21'0 0.0
2015-May-23 12:20N 47°33' W 122°21'0 0.0
2015-May-23 11:32N 47°33' W 122°21'0 0.0
2015-May-23 11:14N 47°33' W 122°21'0 0.0
2015-May-23 10:32N 47°33' W 122°21'0 0.0
2015-May-23 10:29N 47°33' W 122°21'0 0.0
2015-May-23 09:32N 47°33' W 122°21'0 0.0
2015-May-23 09:29N 47°33' W 122°21'0 0.0
2015-May-23 08:32N 47°33' W 122°21'0 0.0
2015-May-23 08:29N 47°33' W 122°21'0 0.0
2015-May-23 06:47N 47°33' W 122°21'0 0.0
2015-May-23 06:29N 47°33' W 122°21'0 0.0
2015-May-23 05:47N 47°33' W 122°21'0 0.0
2015-May-23 05:26N 47°33' W 122°21'0 0.0
2015-May-23 04:05N 47°33' W 122°21'0 0.0
2015-May-23 03:32N 47°33' W 122°21'0 0.0
2015-May-23 03:05N 47°33' W 122°21'0 0.0
2015-May-23 02:32N 47°33' W 122°21'0 0.0
2015-May-23 01:44N 47°33' W 122°21'0 0.0
2015-May-23 01:14N 47°33' W 122°21'0 0.0
2015-May-23 01:14N 47°33' W 122°21'0 0.0
2015-May-23 00:32N 47°33' W 122°21'0 0.0
2015-May-23 00:29N 47°33' W 122°21'0 0.0
2015-May-22 23:26N 47°33' W 122°21'0 0.0
2015-May-22 22:31N 47°33' W 122°21'0 0.0
2015-May-22 22:29N 47°33' W 122°21'0 0.0
2015-May-22 21:33N 47°33' W 122°21'0 0.1
2015-May-22 21:28N 47°33' W 122°21'0 0.0
2015-May-22 20:34N 47°33' W 122°21'0 0.0
2015-May-22 20:34N 47°33' W 122°21'2 1.9
2015-May-22 19:33N 47°35' W 122°21'0 0.0
2015-May-22 19:33N 47°35' W 122°21'0 0.0
2015-May-22 18:33N 47°35' W 122°21'0 0.0
2015-May-22 18:33N 47°35' W 122°21'2 1.8
2015-May-22 17:28N 47°33' W 122°21'0 0.0
2015-May-22 17:27N 47°33' W 122°21'0 0.0
2015-May-22 14:44N 47°33' W 122°21'0 0.0
2015-May-22 14:32N 47°33' W 122°21'0 0.0
2015-May-22 13:44N 47°33' W 122°21'0 0.0
2015-May-22 13:26N 47°33' W 122°21'0 0.0
2015-May-22 13:14N 47°33' W 122°21'0 0.0
2015-May-22 12:14N 47°33' W 122°21'0 0.0
2015-May-22 11:53N 47°33' W 122°21'0 0.0
2015-May-22 11:32N 47°33' W 122°21'0 0.0
2015-May-22 11:23N 47°33' W 122°21'0 0.0
2015-May-22 10:32N 47°33' W 122°21'0 0.0
2015-May-22 10:32N 47°33' W 122°21'0 0.0
2015-May-22 09:32N 47°33' W 122°21'0 0.0
2015-May-22 09:31N 47°33' W 122°21'0 0.0
2015-May-22 08:11N 47°33' W 122°21'0 0.0
2015-May-22 08:10N 47°33' W 122°21'0 0.0
2015-May-22 07:23N 47°33' W 122°21'0 0.0
2015-May-22 06:55N 47°33' W 122°21'0 0.0
2015-May-22 06:25N 47°33' W 122°21'0 0.0
2015-May-22 06:25N 47°33' W 122°21'0 0.0
2015-May-22 05:34N 47°33' W 122°21'0 0.1
2015-May-22 05:31N 47°33' W 122°21'0 0.0
2015-May-22 04:25N 47°33' W 122°21'0 0.0
2015-May-22 04:13N 47°33' W 122°21'0 0.0
2015-May-22 03:31N 47°33' W 122°21'0 0.0
2015-May-22 02:58N 47°33' W 122°21'0 0.0
2015-May-22 02:31N 47°33' W 122°21'0 0.0
2015-May-22 02:28N 47°33' W 122°21'1 1.6
2015-May-22 01:33N 47°35' W 122°22'0 4.6
2015-May-22 01:33N 47°35' W 122°22'4 4.0
2015-May-22 00:33N 47°37' W 122°26'0 6.6
2015-May-22 00:33N 47°37' W 122°26'7 6.8
2015-May-21 23:33N 47°44' W 122°28'0 7.0
2015-May-21 23:32N 47°44' W 122°28'7 7.4
2015-May-21 22:33N 47°51' W 122°29'0 7.6
2015-May-21 22:31N 47°52' W 122°29'7 7.0
2015-May-21 21:33N 47°57' W 122°35'6 6.1
2015-May-21 20:33N 48°03' W 122°39'5 4.6
2015-May-21 19:23N 48°08' W 122°42'4 3.7
2015-May-21 18:23N 48°10' W 122°46'2 2.8
2015-May-21 17:32N 48°12' W 122°48'6 6.0
2015-May-21 16:33N 48°18' W 122°47'8 7.8
2015-May-21 15:33N 48°26' W 122°45'8 8.1
2015-May-21 14:33N 48°34' W 122°45'7 6.9
2015-May-21 13:33N 48°41' W 122°44'7 6.8
2015-May-21 12:34N 48°46' W 122°50'8 7.7
2015-May-21 11:33N 48°50' W 123°00'7 7.0
2015-May-21 10:33N 48°54' W 123°08'7 7.2
2015-May-21 09:33N 48°59' W 123°16'6 6.1
2015-May-21 08:33N 49°05' W 123°20'4 6.8
2015-May-21 08:00N 49°07' W 123°16'3 6.0
2015-May-21 07:33N 49°07' W 123°12'7 6.6
2015-May-21 06:33N 49°09' W 123°02'0 0.1
2015-May-21 05:32N 49°09' W 123°02'0 0.0
2015-May-21 04:32N 49°09' W 123°02'0 0.0
2015-May-21 03:31N 49°09' W 123°02'0 0.0
2015-May-21 02:31N 49°09' W 123°02'0 0.0
2015-May-21 01:31N 49°09' W 123°02'0 0.0
2015-May-21 00:31N 49°09' W 123°02'0 0.0
2015-May-20 23:28N 49°09' W 123°02'0 0.0
2015-May-20 22:31N 49°09' W 123°02'0 0.0
2015-May-20 21:31N 49°09' W 123°02'0 0.0
2015-May-20 20:31N 49°09' W 123°02'0 0.0
2015-May-20 19:31N 49°09' W 123°02'0 0.0
2015-May-20 18:31N 49°09' W 123°02'0 0.0
2015-May-20 17:31N 49°09' W 123°02'0 0.0
2015-May-20 16:34N 49°09' W 123°02'0 0.0
2015-May-20 15:30N 49°09' W 123°02'0 0.0
2015-May-20 14:33N 49°09' W 123°02'0 0.0
2015-May-20 13:33N 49°09' W 123°02'0 0.0
2015-May-20 12:33N 49°09' W 123°02'0 0.0
2015-May-20 11:33N 49°09' W 123°02'0 0.0
2015-May-20 10:33N 49°09' W 123°02'0 0.0
2015-May-20 09:33N 49°09' W 123°02'0 0.0
2015-May-20 08:33N 49°09' W 123°02'0 0.0
2015-May-20 07:33N 49°09' W 123°02'0 0.0
2015-May-20 06:33N 49°09' W 123°02'0 0.0
2015-May-20 05:33N 49°09' W 123°02'0 0.0
2015-May-20 04:33N 49°09' W 123°02'0 0.0
2015-May-20 03:33N 49°09' W 123°02'0 0.0
2015-May-20 02:33N 49°09' W 123°02'0 0.0
2015-May-20 01:33N 49°09' W 123°02'0 0.0
2015-May-20 00:33N 49°09' W 123°02'0 0.0
2015-May-19 23:33N 49°09' W 123°02'0 0.0
2015-May-19 22:33N 49°09' W 123°02'0 0.0
2015-May-19 21:27N 49°09' W 123°02'0 0.0
2015-May-19 20:30N 49°09' W 123°02'0 0.0
2015-May-19 19:33N 49°09' W 123°02'0 0.0
2015-May-19 18:30N 49°09' W 123°02'0 0.0
2015-May-19 17:33N 49°09' W 123°02'0 0.0
2015-May-19 16:33N 49°09' W 123°02'0 0.0
2015-May-19 15:33N 49°09' W 123°02'0 0.0
2015-May-19 14:33N 49°09' W 123°02'0 0.0
2015-May-19 13:33N 49°09' W 123°02'0 0.0
2015-May-19 12:33N 49°09' W 123°02'0 0.0
2015-May-19 11:33N 49°09' W 123°02'0 0.0
2015-May-19 10:30N 49°09' W 123°02'0 0.0
2015-May-19 09:33N 49°09' W 123°02'0 0.0
2015-May-19 08:33N 49°09' W 123°02'0 0.0
2015-May-19 07:33N 49°09' W 123°02'0 0.0
2015-May-19 06:33N 49°09' W 123°02'0 0.0
2015-May-19 05:33N 49°09' W 123°02'0 0.0
2015-May-19 04:32N 49°09' W 123°02'0 0.0
2015-May-19 03:32N 49°09' W 123°02'0 0.1
2015-May-19 02:31N 49°09' W 123°02'1 1.1
2015-May-19 01:32N 49°09' W 123°00'0 0.0
2015-May-19 00:32N 49°09' W 123°00'0 0.0
2015-May-18 23:23N 49°09' W 123°00'0 0.0
2015-May-18 22:26N 49°09' W 123°00'0 0.0
2015-May-18 21:32N 49°09' W 123°00'0 0.0
2015-May-18 20:32N 49°09' W 123°00'0 0.0
2015-May-18 17:32N 49°09' W 123°00'0 0.0
2015-May-18 15:32N 49°09' W 123°00'0 0.0
2015-May-18 13:23N 49°09' W 123°00'0 0.0
2015-May-17 18:31N 49°09' W 123°00'0 0.0
2015-May-17 17:31N 49°09' W 123°00'0 0.0
2015-May-17 16:31N 49°09' W 123°00'0 0.0
2015-May-17 15:31N 49°09' W 123°00'0 0.0
2015-May-17 14:31N 49°09' W 123°00'0 0.1
2015-May-17 13:33N 49°09' W 123°00'1 0.6
2015-May-17 12:33N 49°09' W 123°01'6 6.0
2015-May-17 11:34N 49°07' W 123°10'6 5.5
2015-May-17 10:33N 49°06' W 123°18'4 4.0
2015-May-17 09:33N 49°02' W 123°17'6 6.0
2015-May-17 08:33N 48°58' W 123°10'6 6.4
2015-May-17 07:33N 48°54' W 123°02'8 8.4
2015-May-17 06:33N 48°49' W 122°52'8 8.3
2015-May-17 05:33N 48°42' W 122°44'7 6.6
2015-May-17 04:33N 48°36' W 122°45'7 6.4
2015-May-17 03:33N 48°29' W 122°44'8 7.6
2015-May-17 02:30N 48°21' W 122°45'22 7.2
2015-May-16 23:31N 48°01' W 122°36'3 6.7
2015-May-16 23:04N 47°58' W 122°34'4 8.0
2015-May-16 22:33N 47°56' W 122°29'1 7.4
2015-May-16 22:29N 47°55' W 122°29'7 7.8
2015-May-16 21:33N 47°48' W 122°26'1 8.3
2015-May-16 21:29N 47°48' W 122°26'7 7.9
2015-May-16 20:34N 47°40' W 122°27'0 8.5
2015-May-16 20:33N 47°40' W 122°27'6 6.3
2015-May-16 19:34N 47°35' W 122°22'0 0.0
2015-May-16 19:33N 47°35' W 122°22'2 1.5
2015-May-16 18:19N 47°33' W 122°21'0 0.0
2015-May-16 17:19N 47°33' W 122°21'0 0.1
2015-May-16 16:31N 47°33' W 122°21'0 0.0
2015-May-16 16:31N 47°33' W 122°21'0 0.0
2015-May-16 15:28N 47°33' W 122°21'0 0.0
2015-May-16 14:25N 47°33' W 122°21'0 0.0
2015-May-16 14:25N 47°33' W 122°21'0 0.0
2015-May-16 13:22N 47°33' W 122°21'0 0.1
2015-May-16 13:19N 47°33' W 122°21'0 0.0
2015-May-16 12:19N 47°33' W 122°21'0 0.0
2015-May-16 12:19N 47°33' W 122°21'0 0.0
2015-May-16 11:31N 47°33' W 122°21'0 0.0
2015-May-16 10:28N 47°33' W 122°21'0 0.0
2015-May-16 09:28N 47°33' W 122°21'0 0.0
2015-May-16 07:43N 47°33' W 122°21'0 0.0
2015-May-16 07:28N 47°33' W 122°21'0 0.0
2015-May-16 07:28N 47°33' W 122°21'0 0.0
2015-May-16 06:10N 47°33' W 122°21'0 0.0
2015-May-16 05:37N 47°33' W 122°21'0 0.0
2015-May-16 00:39N 47°33' W 122°21'0 0.1
2015-May-16 00:33N 47°33' W 122°21'  

Dump ship's entire track history